createdAt,value
2023-03-30T00:00:38.297Z,100112.59
2023-03-30T00:02:41.398Z,100115.63
2023-03-30T00:04:45.617Z,100116.41
2023-03-30T00:06:47.586Z,100119.94
2023-03-30T00:08:49.940Z,100110.19
2023-03-30T00:10:51.557Z,100107.16
2023-03-30T00:12:53.141Z,100085.75
2023-03-30T00:14:54.817Z,100097.25
2023-03-30T00:16:56.432Z,100083.50
2023-03-30T00:18:59.355Z,100081.75
2023-03-30T00:21:01.344Z,100072.63
2023-03-30T00:23:03.151Z,100079.03
2023-03-30T00:25:06.265Z,100083.34
2023-03-30T00:27:07.829Z,100082.22
2023-03-30T00:29:09.403Z,100064.78
2023-03-30T00:31:11.026Z,100067.50
2023-03-30T00:33:12.811Z,100068.94
2023-03-30T00:35:15.979Z,100067.81
2023-03-30T00:37:17.809Z,100067.03
2023-03-30T00:39:19.767Z,100058.88
2023-03-30T00:41:21.410Z,100064.97
2023-03-30T00:43:23.668Z,100067.53
2023-03-30T00:45:26.383Z,100066.72
2023-03-30T00:47:29.286Z,100056.19
2023-03-30T00:49:31.078Z,100059.69
2023-03-30T00:51:37.287Z,100065.59
2023-03-30T00:53:41.382Z,100062.41
2023-03-30T00:55:44.822Z,100059.69
2023-03-30T00:57:47.938Z,100064.81
2023-03-30T00:59:50.124Z,100046.78
2023-03-30T01:01:52.052Z,100056.66
2023-03-30T01:03:55.637Z,100050.44
2023-03-30T01:05:59.964Z,100052.69
2023-03-30T01:08:03.658Z,100052.50
2023-03-30T01:10:06.941Z,100068.34
2023-03-30T01:12:08.980Z,100065.63
2023-03-30T01:14:14.115Z,100072.97
2023-03-30T01:16:26.788Z,100081.28
2023-03-30T01:18:39.753Z,100076.66
2023-03-30T01:21:12.604Z,100075.84
2023-03-30T01:24:07.911Z,100059.09
2023-03-30T01:26:41.679Z,100053.81
2023-03-30T01:28:50.435Z,100056.81
2023-03-30T01:31:10.905Z,100059.72
2023-03-30T01:33:34.739Z,100051.25
2023-03-30T01:36:11.825Z,100056.03
2023-03-30T01:38:49.132Z,100054.59
2023-03-30T01:40:59.865Z,100055.06
2023-03-30T01:43:14.061Z,100054.91
2023-03-30T01:45:27.407Z,100064.66
2023-03-30T01:47:36.629Z,100065.59
2023-03-30T01:49:43.181Z,100072.97
2023-03-30T01:51:50.014Z,100068.03
2023-03-30T01:53:58.053Z,100070.25
2023-03-30T01:56:07.277Z,100059.72
2023-03-30T01:58:14.201Z,100062.75
2023-03-30T02:00:20.724Z,100066.56
2023-03-30T02:02:35.221Z,100067.06
2023-03-30T02:04:40.461Z,100074.09
2023-03-30T02:06:46.490Z,100074.41
2023-03-30T02:08:50.386Z,100077.59
2023-03-30T02:10:54.832Z,100073.75
2023-03-30T02:13:00.000Z,100082.22
2023-03-30T02:15:04.680Z,100080.16
2023-03-30T02:17:11.706Z,100093.44
2023-03-30T02:19:13.763Z,100090.06
2023-03-30T02:21:15.705Z,100100.91
2023-03-30T02:23:20.612Z,100092.63
2023-03-30T02:25:22.425Z,100101.41
2023-03-30T02:27:25.376Z,100096.78
2023-03-30T02:29:29.033Z,100081.44
2023-03-30T02:31:30.830Z,100050.78
2023-03-30T02:33:41.790Z,100058.31
2023-03-30T02:36:10.904Z,100069.00
2023-03-30T02:38:48.734Z,100088.31
2023-03-30T02:41:01.300Z,100092.81
2023-03-30T02:43:22.538Z,100092.66
2023-03-30T02:45:35.827Z,100077.28
2023-03-30T02:47:47.079Z,100071.56
2023-03-30T02:49:55.982Z,100067.59
2023-03-30T02:52:08.980Z,100065.97
2023-03-30T02:54:21.370Z,100053.81
2023-03-30T02:56:27.895Z,100048.09
2023-03-30T02:58:38.035Z,100057.50
2023-03-30T03:00:44.990Z,100062.78
2023-03-30T03:02:52.789Z,100066.59
2023-03-30T03:04:55.189Z,100069.31
2023-03-30T03:06:56.817Z,100068.84
2023-03-30T03:08:59.189Z,100078.56
2023-03-30T03:11:00.968Z,100082.72
2023-03-30T03:13:02.835Z,100071.22
2023-03-30T03:15:05.637Z,100052.88
2023-03-30T03:17:08.686Z,100042.66
2023-03-30T03:19:10.283Z,100046.16
2023-03-30T03:21:12.728Z,100051.59
2023-03-30T03:23:14.247Z,100042.66
2023-03-30T03:25:16.058Z,100041.72
2023-03-30T03:27:17.830Z,100035.66
2023-03-30T03:29:19.495Z,100032.44
2023-03-30T03:31:21.302Z,100025.09
2023-03-30T03:33:24.403Z,100033.09
2023-03-30T03:35:26.182Z,100027.81
2023-03-30T03:37:27.718Z,100033.22
2023-03-30T03:39:29.350Z,100029.25
2023-03-30T03:41:30.917Z,100014.88
2023-03-30T03:43:32.503Z,100010.72
2023-03-30T03:45:34.264Z,100002.75
2023-03-30T03:47:35.890Z,100006.44
2023-03-30T03:49:38.915Z,99998.59
2023-03-30T03:51:40.517Z,99994.59
2023-03-30T03:53:42.094Z,99997.47
2023-03-30T03:55:43.929Z,100001.97
2023-03-30T03:57:45.641Z,100011.22
2023-03-30T03:59:47.191Z,100000.34
2023-03-30T04:01:48.813Z,99998.13
2023-03-30T04:03:50.512Z,99998.28
2023-03-30T04:05:53.439Z,99988.22
2023-03-30T04:07:55.010Z,99988.69
2023-03-30T04:09:56.596Z,99977.84
2023-03-30T04:11:58.163Z,99968.91
2023-03-30T04:13:59.872Z,99955.16
2023-03-30T04:16:01.587Z,99956.28
2023-03-30T04:18:06.132Z,99957.88
2023-03-30T04:20:09.164Z,99950.84
2023-03-30T04:22:12.141Z,99936.16
2023-03-30T04:24:14.031Z,99934.25
2023-03-30T04:26:16.328Z,99931.19
2023-03-30T04:28:18.097Z,99927.72
2023-03-30T04:30:20.705Z,99920.69
2023-03-30T04:32:22.393Z,99915.25
2023-03-30T04:34:24.144Z,99920.69
2023-03-30T04:36:25.853Z,99927.38
2023-03-30T04:38:28.835Z,99931.34
2023-03-30T04:40:30.443Z,99937.25
2023-03-30T04:42:32.148Z,99934.88
2023-03-30T04:44:33.783Z,99938.72
2023-03-30T04:46:35.942Z,99931.03
2023-03-30T04:48:37.800Z,99935.19
2023-03-30T04:50:39.369Z,99937.25
2023-03-30T04:52:41.032Z,99942.69
2023-03-30T04:54:44.181Z,99930.22
2023-03-30T04:56:45.764Z,99931.97
2023-03-30T04:58:50.304Z,99933.56
2023-03-30T05:00:52.016Z,99929.41
2023-03-30T05:02:54.814Z,99928.75
2023-03-30T05:04:56.607Z,99927.97
2023-03-30T05:06:58.462Z,99927.16
2023-03-30T05:09:00.224Z,99926.06
2023-03-30T05:11:03.847Z,99935.00
2023-03-30T05:13:05.656Z,99942.19
2023-03-30T05:15:08.913Z,99934.69
2023-03-30T05:17:10.617Z,99928.13
2023-03-30T05:19:12.258Z,99930.19
2023-03-30T05:21:13.910Z,99934.84
2023-03-30T05:23:15.530Z,99937.88
2023-03-30T05:25:17.267Z,99949.06
2023-03-30T05:27:20.217Z,99948.25
2023-03-30T05:29:21.885Z,99944.28
2023-03-30T05:31:23.491Z,99959.13
2023-03-30T05:33:27.667Z,99945.75
2023-03-30T05:35:29.339Z,99954.38
2023-03-30T05:37:31.054Z,99954.03
2023-03-30T05:39:32.752Z,99955.50
2023-03-30T05:41:34.408Z,99963.00
2023-03-30T05:43:37.385Z,99975.75
2023-03-30T05:45:39.018Z,100002.13
2023-03-30T05:47:40.780Z,100012.63
2023-03-30T05:49:42.504Z,100030.38
2023-03-30T05:51:44.156Z,100044.09
2023-03-30T05:53:45.754Z,100079.56
2023-03-30T05:55:48.669Z,100103.50
2023-03-30T05:57:50.243Z,100115.13
2023-03-30T05:59:53.323Z,100122.78
2023-03-30T06:01:54.936Z,100122.63
2023-03-30T06:03:56.683Z,100109.38
2023-03-30T06:05:58.485Z,100116.38
2023-03-30T06:08:00.117Z,100133.28
2023-03-30T06:10:01.725Z,100129.47
2023-03-30T06:12:03.638Z,100130.91
2023-03-30T06:14:05.193Z,100123.75
2023-03-30T06:16:09.186Z,100124.03
2023-03-30T06:18:11.062Z,100109.97
2023-03-30T06:20:12.879Z,100120.84
2023-03-30T06:22:14.611Z,100152.59
2023-03-30T06:24:16.205Z,100146.19
2023-03-30T06:26:17.848Z,100142.53
2023-03-30T06:28:19.612Z,100132.63
2023-03-30T06:30:21.690Z,100142.16
2023-03-30T06:32:24.927Z,100149.00
2023-03-30T06:34:26.630Z,100149.94
2023-03-30T06:36:44.950Z,100147.56
2023-03-30T06:38:47.683Z,100155.22
2023-03-30T06:40:49.475Z,100151.13
2023-03-30T06:42:51.151Z,100149.78
2023-03-30T06:44:53.362Z,100132.94
2023-03-30T06:46:54.978Z,100119.50
2023-03-30T06:48:58.008Z,100116.75
2023-03-30T06:50:59.659Z,100118.47
2023-03-30T06:53:01.357Z,100109.22
2023-03-30T06:55:03.590Z,100087.38
2023-03-30T06:57:05.239Z,100080.22
2023-03-30T06:59:06.884Z,100094.44
2023-03-30T07:01:09.930Z,100092.66
2023-03-30T07:03:11.589Z,100085.94
2023-03-30T07:05:14.802Z,100070.78
2023-03-30T07:07:16.405Z,100066.97
2023-03-30T07:09:18.160Z,100074.44
2023-03-30T07:11:20.080Z,100087.03
2023-03-30T07:13:21.920Z,100073.03
2023-03-30T07:15:23.727Z,100070.31
2023-03-30T07:17:26.936Z,100075.91
2023-03-30T07:19:28.891Z,100079.09
2023-03-30T07:21:37.760Z,100073.03
2023-03-30T07:23:39.455Z,100086.25
2023-03-30T07:25:41.261Z,100085.94
2023-03-30T07:27:43.004Z,100087.38
2023-03-30T07:29:44.615Z,100098.69
2023-03-30T07:31:46.376Z,100108.09
2023-03-30T07:33:48.030Z,100112.72
2023-03-30T07:35:50.636Z,100103.47
2023-03-30T07:38:02.321Z,100099.94
2023-03-30T07:40:09.032Z,100086.84
2023-03-30T07:42:10.639Z,100062.78
2023-03-30T07:44:12.353Z,100061.50
2023-03-30T07:46:14.115Z,100059.72
2023-03-30T07:48:15.835Z,100061.34
2023-03-30T07:50:17.657Z,100060.38
2023-03-30T07:52:19.263Z,100061.00
2023-03-30T07:54:22.269Z,100061.97
2023-03-30T07:56:24.003Z,100075.66
2023-03-30T07:58:25.702Z,100071.19
2023-03-30T08:00:27.279Z,100061.41
2023-03-30T08:02:29.084Z,100060.31
2023-03-30T08:04:30.848Z,100046.09
2023-03-30T08:06:32.507Z,100060.75
2023-03-30T08:08:34.630Z,100062.84
2023-03-30T08:10:37.561Z,100081.16
2023-03-30T08:12:39.133Z,100077.47
2023-03-30T08:14:40.758Z,100083.53
2023-03-30T08:16:42.352Z,100101.38
2023-03-30T08:18:43.889Z,100095.47
2023-03-30T08:20:45.635Z,100090.22
2023-03-30T08:22:47.951Z,100091.00
2023-03-30T08:24:49.512Z,100080.50
2023-03-30T08:26:55.348Z,100077.47
2023-03-30T08:28:57.179Z,100067.09
2023-03-30T08:31:03.557Z,100079.06
2023-03-30T08:33:05.414Z,100084.47
2023-03-30T08:35:08.103Z,100086.06
2023-03-30T08:37:09.824Z,100099.34
2023-03-30T08:39:11.423Z,100101.84
2023-03-30T08:41:53.267Z,100095.97
2023-03-30T08:43:58.726Z,100090.72
2023-03-30T08:46:01.282Z,100099.50
2023-03-30T08:48:03.780Z,100095.97
2023-03-30T08:50:08.724Z,100116.06
2023-03-30T08:52:18.644Z,100123.72
2023-03-30T08:54:22.000Z,100108.13
2023-03-30T08:56:26.681Z,100115.44
2023-03-30T08:58:39.118Z,100138.16
2023-03-30T09:00:48.322Z,100129.38
2023-03-30T09:02:53.295Z,100111.78
2023-03-30T09:05:00.161Z,100096.47
2023-03-30T09:07:07.836Z,100112.25
2023-03-30T09:09:12.729Z,100121.03
2023-03-30T09:11:18.958Z,100112.13
2023-03-30T09:13:27.392Z,100108.91
2023-03-30T09:15:32.246Z,100101.09
2023-03-30T09:17:41.820Z,100097.91
2023-03-30T09:19:50.609Z,100100.47
2023-03-30T09:21:55.769Z,100083.59
2023-03-30T09:24:00.330Z,100093.81
2023-03-30T09:26:13.327Z,100085.53
2023-03-30T09:28:19.205Z,100085.53
2023-03-30T09:30:23.810Z,100107.03
2023-03-30T09:32:33.611Z,100121.91
2023-03-30T09:34:44.373Z,100118.88
2023-03-30T09:36:54.659Z,100097.69
2023-03-30T09:38:56.461Z,100080.44
2023-03-30T09:41:12.107Z,100072.28
2023-03-30T09:43:19.523Z,100116.66
2023-03-30T09:45:25.797Z,100114.78
2023-03-30T09:47:33.033Z,100128.50
2023-03-30T09:49:39.394Z,100121.19
2023-03-30T09:51:55.390Z,100115.59
2023-03-30T09:54:00.381Z,100120.56
2023-03-30T09:56:08.658Z,100134.66
2023-03-30T09:58:13.701Z,100135.66
2023-03-30T10:00:27.346Z,100115.25
2023-03-30T10:02:29.611Z,100095.16
2023-03-30T10:04:31.311Z,100087.50
2023-03-30T10:06:38.022Z,100097.22
2023-03-30T10:08:43.453Z,100110.97
2023-03-30T10:10:45.260Z,100128.69
2023-03-30T10:12:49.411Z,100121.38
2023-03-30T10:14:54.755Z,100124.41
2023-03-30T10:16:58.041Z,100124.06
2023-03-30T10:19:01.400Z,100123.28
2023-03-30T10:21:06.109Z,100114.81
2023-03-30T10:23:15.553Z,100117.84
2023-03-30T10:25:21.550Z,100132.38
2023-03-30T10:27:32.326Z,100130.94
2023-03-30T10:29:33.948Z,100114.50
2023-03-30T10:31:37.646Z,100125.53
2023-03-30T10:33:41.692Z,100122.00
2023-03-30T10:35:43.338Z,100123.94
2023-03-30T10:37:46.822Z,100122.00
2023-03-30T10:39:52.191Z,100129.22
2023-03-30T10:41:54.540Z,100113.72
2023-03-30T10:43:56.202Z,100126.97
2023-03-30T10:46:18.212Z,100120.91
2023-03-30T10:48:44.430Z,100112.59
2023-03-30T10:50:55.264Z,100115.94
2023-03-30T10:53:09.840Z,100126.66
2023-03-30T10:55:17.903Z,100113.25
2023-03-30T10:57:24.392Z,100123.13
2023-03-30T10:59:59.943Z,100123.63
2023-03-30T11:02:39.416Z,100125.38
2023-03-30T11:04:43.525Z,100126.66
2023-03-30T11:06:45.513Z,100128.41
2023-03-30T11:08:50.600Z,100135.75
2023-03-30T11:10:56.382Z,100129.72
2023-03-30T11:13:02.078Z,100137.00
2023-03-30T11:15:09.227Z,100134.00
2023-03-30T11:17:18.011Z,100126.78
2023-03-30T11:19:24.212Z,100120.16
2023-03-30T11:21:31.987Z,100123.03
2023-03-30T11:23:42.615Z,100119.38
2023-03-30T11:25:57.838Z,100110.38
2023-03-30T11:28:09.264Z,100108.75
2023-03-30T11:30:17.433Z,100116.59
2023-03-30T11:32:30.667Z,100114.06
2023-03-30T11:34:38.942Z,100108.25
2023-03-30T11:36:48.626Z,100117.00
2023-03-30T11:38:57.056Z,100113.34
2023-03-30T11:41:06.082Z,100123.56
2023-03-30T11:43:10.043Z,100121.50
2023-03-30T11:45:18.718Z,100129.03
2023-03-30T11:47:44.922Z,100124.84
2023-03-30T11:49:57.797Z,100124.72
2023-03-30T11:52:09.985Z,100114.31
2023-03-30T11:54:46.951Z,100118.88
2023-03-30T11:57:04.129Z,100108.28
2023-03-30T11:59:14.826Z,100113.31
2023-03-30T12:01:41.325Z,100098.34
2023-03-30T12:03:46.420Z,100094.84
2023-03-30T12:05:54.428Z,100082.38
2023-03-30T12:08:06.420Z,100080.44
2023-03-30T12:10:13.482Z,100087.28
2023-03-30T12:12:18.801Z,100064.59
2023-03-30T12:14:36.574Z,100071.50
2023-03-30T12:16:43.057Z,100051.44
2023-03-30T12:18:57.487Z,100056.84
2023-03-30T12:21:13.246Z,100064.19
2023-03-30T12:23:32.138Z,100049.97
2023-03-30T12:25:44.632Z,100051.41
2023-03-30T12:27:57.771Z,100045.06
2023-03-30T12:30:15.133Z,100048.56
2023-03-30T12:32:25.750Z,100039.75
2023-03-30T12:34:32.678Z,100051.09
2023-03-30T12:36:36.325Z,100046.97
2023-03-30T12:38:49.995Z,100057.00
2023-03-30T12:41:03.866Z,100034.06
2023-03-30T12:43:15.023Z,100044.75
2023-03-30T12:45:28.081Z,100034.25
2023-03-30T12:47:48.665Z,100029.97
2023-03-30T12:50:15.761Z,100021.25
2023-03-30T12:52:27.718Z,100029.66
2023-03-30T12:55:04.920Z,100031.94
2023-03-30T12:57:20.949Z,100019.19
2023-03-30T12:59:46.154Z,100042.41
2023-03-30T13:02:00.176Z,100057.78
2023-03-30T13:04:05.235Z,100059.72
2023-03-30T13:06:20.922Z,100053.47
2023-03-30T13:08:30.971Z,100068.03
2023-03-30T13:10:42.096Z,100049.69
2023-03-30T13:15:50.841Z,100031.06
2023-03-30T13:17:58.797Z,100023.97
2023-03-30T13:20:29.349Z,100022.72
2023-03-30T13:22:40.251Z,100016.22
2023-03-30T13:24:45.239Z,100017.94
2023-03-30T13:26:46.806Z,100020.22
2023-03-30T13:29:07.239Z,100021.94
2023-03-30T13:31:27.117Z,100013.88
2023-03-30T13:33:29.815Z,100019.44
2023-03-30T13:35:38.899Z,100010.72
2023-03-30T13:37:57.666Z,100012.22
2023-03-30T13:40:07.488Z,100004.88
2023-03-30T13:42:26.026Z,100003.84
2023-03-30T13:44:47.300Z,100003.28
2023-03-30T13:46:53.231Z,100006.59
2023-03-30T13:49:06.408Z,100003.44
2023-03-30T13:51:16.509Z,100001.06
2023-03-30T13:53:19.262Z,99991.28
2023-03-30T13:55:31.855Z,99998.00
2023-03-30T13:57:37.830Z,100005.75
2023-03-30T13:59:44.014Z,99980.53
2023-03-30T14:01:48.972Z,99987.97
2023-03-30T14:03:55.311Z,99988.41
2023-03-30T14:06:00.333Z,99990.78
2023-03-30T14:08:02.011Z,99993.09
2023-03-30T14:10:06.184Z,99988.78
2023-03-30T14:12:08.896Z,99992.72
2023-03-30T14:14:16.426Z,99991.13
2023-03-30T14:16:21.261Z,99996.50
2023-03-30T14:18:27.199Z,99996.34
2023-03-30T14:20:46.234Z,99997.78
2023-03-30T14:22:49.483Z,100004.44
2023-03-30T14:24:58.790Z,100000.28
2023-03-30T14:27:06.758Z,99998.00
2023-03-30T14:29:20.999Z,100014.50
2023-03-30T14:31:39.182Z,100028.94
2023-03-30T14:33:41.013Z,100047.91
2023-03-30T14:35:48.111Z,100054.88
2023-03-30T14:37:55.813Z,100048.47
2023-03-30T14:40:01.036Z,100037.81
2023-03-30T14:42:14.267Z,100048.94
2023-03-30T14:44:17.882Z,100051.47
2023-03-30T14:46:19.978Z,100043.13
2023-03-30T14:48:27.425Z,100052.59
2023-03-30T14:50:29.722Z,100044.72
2023-03-30T14:52:38.058Z,100042.81
2023-03-30T14:54:43.176Z,100046.22
2023-03-30T14:56:55.400Z,100046.66
2023-03-30T14:58:59.062Z,100036.91
2023-03-30T15:01:04.224Z,100030.31
2023-03-30T15:03:16.820Z,100036.22
2023-03-30T15:05:28.514Z,100043.28
2023-03-30T15:07:32.332Z,100037.91
2023-03-30T15:09:38.523Z,100031.78
2023-03-30T15:11:40.934Z,100035.75
2023-03-30T15:13:46.712Z,100029.06
2023-03-30T15:15:48.604Z,100045.09
2023-03-30T15:17:51.126Z,100040.44
2023-03-30T15:19:55.800Z,100041.56
2023-03-30T15:22:00.795Z,100047.81
2023-03-30T15:24:06.649Z,100046.47
2023-03-30T15:26:08.502Z,100052.03
2023-03-30T15:28:15.063Z,100051.09
2023-03-30T15:30:27.625Z,100054.41
2023-03-30T15:32:33.287Z,100057.81
2023-03-30T15:34:34.940Z,100058.16
2023-03-30T15:36:38.910Z,100052.69
2023-03-30T15:38:47.738Z,100059.84
2023-03-30T15:40:50.675Z,100059.97
2023-03-30T15:43:11.254Z,100066.88
2023-03-30T15:45:13.937Z,100055.09
2023-03-30T15:47:19.406Z,100062.47
2023-03-30T15:49:23.379Z,100060.53
2023-03-30T15:51:29.218Z,100052.69
2023-03-30T15:53:35.387Z,100054.06
2023-03-30T15:55:39.175Z,100062.91
2023-03-30T15:57:46.177Z,100051.31
2023-03-30T15:59:51.714Z,100051.97
2023-03-30T16:01:56.119Z,100060.97
2023-03-30T16:04:00.766Z,100049.72
2023-03-30T16:06:02.479Z,100046.09
2023-03-30T16:08:04.426Z,100056.19
2023-03-30T16:10:12.266Z,100053.78
2023-03-30T16:12:17.023Z,100051.88
2023-03-30T16:14:20.602Z,100054.03
2023-03-30T16:16:22.569Z,100052.91
2023-03-30T16:18:24.590Z,100046.91
2023-03-30T16:20:28.304Z,100044.84
2023-03-30T16:22:30.203Z,100047.69
2023-03-30T16:24:31.887Z,100052.56
2023-03-30T16:26:33.854Z,100047.91
2023-03-30T16:28:35.643Z,100054.03
2023-03-30T16:30:40.296Z,100055.81
2023-03-30T16:32:42.205Z,100055.38
2023-03-30T16:34:44.376Z,100050.06
2023-03-30T16:36:46.327Z,100045.78
2023-03-30T16:38:51.658Z,100050.72
2023-03-30T16:40:56.473Z,100056.81
2023-03-30T16:42:58.746Z,100056.53
2023-03-30T16:45:03.369Z,100068.44
2023-03-30T16:47:07.210Z,100058.88
2023-03-30T16:49:12.964Z,100066.28
2023-03-30T16:51:15.402Z,100067.28
2023-03-30T16:53:17.048Z,100063.63
2023-03-30T16:55:18.971Z,100061.44
2023-03-30T16:57:20.617Z,100081.03
2023-03-30T16:59:24.515Z,100080.91
2023-03-30T17:01:29.838Z,100092.44
2023-03-30T17:03:32.911Z,100092.13
2023-03-30T17:05:34.754Z,100092.44
2023-03-30T17:07:36.616Z,100085.88
2023-03-30T17:09:38.503Z,100085.56
2023-03-30T17:11:40.141Z,100093.56
2023-03-30T17:13:42.212Z,100089.59
2023-03-30T17:15:44.049Z,100083.91
2023-03-30T17:17:45.926Z,100083.31
2023-03-30T17:19:48.953Z,100076.13
2023-03-30T17:21:50.573Z,100080.28
2023-03-30T17:23:52.160Z,100083.81
2023-03-30T17:25:54.805Z,100089.47
2023-03-30T17:27:57.390Z,100097.00
2023-03-30T17:29:59.018Z,100099.22
2023-03-30T17:32:00.773Z,100098.94
2023-03-30T17:34:02.558Z,100095.09
2023-03-30T17:36:12.644Z,100097.31
2023-03-30T17:38:16.266Z,100095.38
2023-03-30T17:40:20.718Z,100078.91
2023-03-30T17:42:22.723Z,100089.03
2023-03-30T17:44:25.817Z,100099.97
2023-03-30T17:46:28.709Z,100095.03
2023-03-30T17:48:32.934Z,100097.63
2023-03-30T17:50:36.140Z,100095.22
2023-03-30T17:52:39.130Z,100093.81
2023-03-30T17:54:42.862Z,100095.56
2023-03-30T17:56:44.911Z,100096.44
2023-03-30T17:58:46.723Z,100099.78
2023-03-30T18:00:49.528Z,100095.34
2023-03-30T18:02:52.447Z,100105.94
2023-03-30T18:04:54.132Z,100103.06
2023-03-30T18:06:55.795Z,100103.53
2023-03-30T18:08:58.880Z,100099.03
2023-03-30T18:11:01.332Z,100099.69
2023-03-30T18:13:03.667Z,100092.50
2023-03-30T18:15:05.856Z,100102.25
2023-03-30T18:17:09.885Z,100097.50
2023-03-30T18:19:12.094Z,100100.84
2023-03-30T18:21:13.741Z,100104.06
2023-03-30T18:23:15.501Z,100109.03
2023-03-30T18:25:31.536Z,100107.13
2023-03-30T18:27:34.419Z,100125.53
2023-03-30T18:29:35.996Z,100135.13
2023-03-30T18:31:37.812Z,100154.16
2023-03-30T18:33:39.586Z,100142.78
2023-03-30T18:35:41.974Z,100132.41
2023-03-30T18:37:44.188Z,100136.56
2023-03-30T18:39:46.346Z,100136.56
2023-03-30T18:41:49.673Z,100150.00
2023-03-30T18:43:51.444Z,100141.50
2023-03-30T18:45:53.966Z,100147.09
2023-03-30T18:47:56.869Z,100140.06
2023-03-30T18:49:58.584Z,100142.94
2023-03-30T18:52:00.250Z,100147.09
2023-03-30T18:54:01.933Z,100144.06
2023-03-30T18:56:04.080Z,100138.94
2023-03-30T18:58:15.408Z,100141.19
2023-03-30T19:00:21.060Z,100149.34
2023-03-30T19:02:22.641Z,100169.94
2023-03-30T19:04:24.363Z,100180.81
2023-03-30T19:06:26.306Z,100189.94
2023-03-30T19:08:28.242Z,100193.28
2023-03-30T19:10:32.701Z,100204.47
2023-03-30T19:12:34.320Z,100195.34
2023-03-30T19:14:37.308Z,100206.22
2023-03-30T19:16:39.035Z,100211.81
2023-03-30T19:18:40.651Z,100196.63
2023-03-30T19:20:42.239Z,100182.41
2023-03-30T19:22:44.183Z,100180.97
2023-03-30T19:24:45.895Z,100183.84
2023-03-30T19:26:47.427Z,100187.03
2023-03-30T19:28:49.072Z,100189.72
2023-03-30T19:30:52.127Z,100187.66
2023-03-30T19:32:57.116Z,100177.41
2023-03-30T19:35:01.424Z,100182.94
2023-03-30T19:37:03.205Z,100182.78
2023-03-30T19:39:04.801Z,100177.97
2023-03-30T19:41:06.829Z,100169.34
2023-03-30T19:43:09.070Z,100171.56
2023-03-30T19:45:11.383Z,100169.50
2023-03-30T19:47:14.776Z,100165.28
2023-03-30T19:49:16.421Z,100157.34
2023-03-30T19:51:18.052Z,100161.03
2023-03-30T19:53:19.612Z,100150.69
2023-03-30T19:55:21.880Z,100153.22
2023-03-30T19:57:23.572Z,100153.38
2023-03-30T19:59:25.490Z,100153.94
2023-03-30T20:01:27.133Z,100151.13
2023-03-30T20:03:30.188Z,100153.78
2023-03-30T20:05:31.976Z,100150.91
2023-03-30T20:07:33.553Z,100147.56
2023-03-30T20:09:35.149Z,100148.69
2023-03-30T20:11:36.807Z,100139.28
2023-03-30T20:13:38.582Z,100127.81
2023-03-30T20:15:40.442Z,100130.88
2023-03-30T20:17:42.576Z,100133.22
2023-03-30T20:19:45.625Z,100130.66
2023-03-30T20:21:47.525Z,100119.31
2023-03-30T20:23:49.405Z,100125.53
2023-03-30T20:25:51.080Z,100125.53
2023-03-30T20:27:53.428Z,100131.16
2023-03-30T20:29:55.030Z,100126.03
2023-03-30T20:31:56.673Z,100121.09
2023-03-30T20:33:58.783Z,100112.78
2023-03-30T20:36:01.714Z,100116.28
2023-03-30T20:38:03.616Z,100118.69
2023-03-30T20:40:06.687Z,100116.59
2023-03-30T20:42:08.387Z,100122.03
2023-03-30T20:44:10.874Z,100111.31
2023-03-30T20:46:17.175Z,100111.50
2023-03-30T20:48:18.731Z,100122.78
2023-03-30T20:50:20.673Z,100111.78
2023-03-30T20:52:23.639Z,100117.81
2023-03-30T20:54:25.272Z,100133.25
2023-03-30T20:56:27.024Z,100130.88
2023-03-30T20:58:29.325Z,100129.09
2023-03-30T21:00:30.947Z,100133.41
2023-03-30T21:02:32.686Z,100151.94
2023-03-30T21:04:34.482Z,100154.63
2023-03-30T21:06:36.190Z,100157.97
2023-03-30T21:08:39.511Z,100138.81
2023-03-30T21:10:41.531Z,100127.03
2023-03-30T21:12:43.156Z,100116.03
2023-03-30T21:14:44.986Z,100120.19
2023-03-30T21:16:46.680Z,100115.38
2023-03-30T21:18:48.719Z,100108.44
2023-03-30T21:20:50.288Z,100110.03
2023-03-30T21:22:51.892Z,100110.03
2023-03-30T21:24:54.982Z,100100.78
2023-03-30T21:26:56.624Z,100102.50
2023-03-30T21:28:58.356Z,100089.63
2023-03-30T21:31:01.300Z,100087.25
2023-03-30T21:33:03.003Z,100089.59
2023-03-30T21:35:05.252Z,100083.19
2023-03-30T21:37:06.863Z,100083.34
2023-03-30T21:39:08.621Z,100089.56
2023-03-30T21:41:14.461Z,100084.47
2023-03-30T21:43:16.214Z,100081.53
2023-03-30T21:45:17.970Z,100082.09
2023-03-30T21:47:19.593Z,100075.38
2023-03-30T21:49:21.086Z,100079.81
2023-03-30T21:51:24.819Z,100072.13
2023-03-30T21:53:26.723Z,100070.97
2023-03-30T21:55:28.395Z,100071.63
2023-03-30T21:57:31.291Z,100066.53
2023-03-30T21:59:32.970Z,100059.34
2023-03-30T22:01:34.552Z,100048.34
2023-03-30T22:03:36.621Z,100050.06
2023-03-30T22:05:38.801Z,100051.97
2023-03-30T22:07:40.444Z,100055.66
2023-03-30T22:09:42.356Z,100042.09
2023-03-30T22:11:43.933Z,100040.50
2023-03-30T22:13:48.462Z,100040.00
2023-03-30T22:15:55.814Z,100039.84
2023-03-30T22:17:57.433Z,100030.94
2023-03-30T22:19:59.162Z,100039.16
2023-03-30T22:22:00.789Z,100036.78
2023-03-30T22:24:02.995Z,100034.69
2023-03-30T22:26:05.093Z,100026.38
2023-03-30T22:28:06.866Z,100015.97
2023-03-30T22:30:10.861Z,100018.38
2023-03-30T22:32:12.474Z,100013.78
2023-03-30T22:34:14.131Z,100008.66
2023-03-30T22:36:17.719Z,100004.97
2023-03-30T22:38:19.349Z,99999.44
2023-03-30T22:40:20.972Z,100002.13
2023-03-30T22:42:22.525Z,99993.91
2023-03-30T22:44:24.183Z,99987.97
2023-03-30T22:46:27.500Z,99982.38
2023-03-30T22:48:29.526Z,99972.66
2023-03-30T22:50:31.713Z,99972.34
2023-03-30T22:52:35.174Z,99977.28
2023-03-30T22:54:36.721Z,99973.25
2023-03-30T22:56:38.279Z,99965.94
2023-03-30T22:58:39.868Z,99961.31
2023-03-30T23:00:41.670Z,99956.53
2023-03-30T23:02:45.033Z,99955.72
2023-03-30T23:04:46.702Z,99952.25
2023-03-30T23:06:48.311Z,99952.84
2023-03-30T23:08:49.920Z,99951.13
2023-03-30T23:10:52.171Z,99954.63
2023-03-30T23:12:54.298Z,99952.41
2023-03-30T23:14:56.146Z,99940.78
2023-03-30T23:16:57.860Z,99947.00
2023-03-30T23:19:01.079Z,99943.31
2023-03-30T23:21:02.659Z,99941.03
2023-03-30T23:23:04.485Z,99931.03
2023-03-30T23:25:06.724Z,99934.50
2023-03-30T23:27:08.491Z,99932.78
2023-03-30T23:29:10.123Z,99928.66
2023-03-30T23:31:13.883Z,99925.47
2023-03-30T23:33:15.520Z,99919.56
2023-03-30T23:35:18.566Z,99925.63
2023-03-30T23:37:20.145Z,99913.97
2023-03-30T23:39:21.824Z,99913.97
2023-03-30T23:41:23.921Z,99906.50
2023-03-30T23:43:25.978Z,99910.78
2023-03-30T23:45:27.714Z,99895.16
2023-03-30T23:47:29.417Z,99896.13
2023-03-30T23:49:31.010Z,99889.75
2023-03-30T23:51:33.947Z,99889.59
2023-03-30T23:53:35.784Z,99882.25
2023-03-30T23:55:37.506Z,99883.53
2023-03-30T23:57:39.073Z,99876.22